Aylett, Virginia
Current Conditions -  °F | °C
As of 8:55 PM on Monday 24 Nov 2014 (Local Time) from KXSA Reporting Station
Clear Clear  
Wind Chill: 69°   Ceiling: Unl
Heat Index: 69°   Visibility: 10mi
Dew Point: 58°   Wind: 10mph
Humidity: 67%   Direction: 190°S
Pressure: 29.82"   Gusts: 17mph
Location:  37.79°N, 77.11°W
Report Text: KXSA 250155Z AUTO 19009G15KT 10SM CLR 20/14 A2982 RMK AO2 T02040142
Loading
Personal Weather Stations






























Interactive Weather Map New forecast layout! Learn more

10-Day Weather Forecast

Advertisements
Track Severe Weather on mobile